Yuzer 1 — YJWD6 — position and weather

sailwx.info

Track history (hours):
 
Tides and Currents Weather Stations Pressure Air Temp Water Temp Dewpoint Dewpoint Depression Visibility Wind Speed Wind Dir Waves Ship Positions

Yuzer 1

Last reported at 2017-Oct-15 21:43 UTC. Time now 2017-Oct-17 13:47 UTC.
Position N 40°59' E 028°60'.

Length 88 m; draft 3.4 m.

Type: Cargo ship. MMSI: 577363000.

Date/timePositionNaut miles runAvg speedWind from/ knotsBaromVisibWave heightAir tempDewpointWater temp
2017-Oct-15 21:43N 40°59' E 028°60'4 7.1
2017-Oct-15 21:09N 40°56' E 029°03'1 8.7
2017-Oct-15 21:00N 40°55' E 029°04'4 8.4
2017-Oct-15 20:30N 40°53' E 029°09'2 3.3
2017-Oct-15 19:59N 40°52' E 029°11'0 0.1
2017-Oct-15 19:30N 40°52' E 029°11'0 0.0
2017-Oct-15 19:00N 40°52' E 029°11'0 0.0
2017-Oct-15 18:30N 40°52' E 029°11'0 0.0
2017-Oct-15 18:00N 40°52' E 029°11'0 0.0
2017-Oct-15 17:30N 40°52' E 029°11'0 0.0
2017-Oct-15 17:00N 40°52' E 029°11'0 0.0
2017-Oct-15 16:30N 40°52' E 029°11'0 0.0
2017-Oct-15 16:00N 40°52' E 029°11'0 0.0
2017-Oct-15 15:30N 40°52' E 029°11'0 0.0
2017-Oct-15 15:00N 40°52' E 029°11'0 0.0
2017-Oct-15 14:00N 40°52' E 029°11'0 0.0
2017-Oct-15 13:30N 40°52' E 029°11'0 0.0
2017-Oct-15 13:00N 40°52' E 029°11'0 0.0
2017-Oct-15 12:30N 40°52' E 029°11'0 0.0
2017-Oct-15 12:00N 40°52' E 029°11'0 0.0
2017-Oct-15 11:30N 40°52' E 029°11'0 0.0
2017-Oct-15 11:00N 40°52' E 029°11'1 1.6
2017-Oct-15 10:30N 40°51' E 029°11'4 8.7
2017-Oct-15 10:00N 40°48' E 029°14'4 8.9
2017-Oct-15 09:30N 40°45' E 029°19'5 8.8
2017-Oct-15 08:54N 40°45' E 029°26'  
2017-Oct-11 00:00N 44°03' E 028°43'4 7.5
2017-Oct-10 23:30N 44°07' E 028°41'3 5.4
2017-Oct-10 23:00N 44°09' E 028°40'1 1.4
2017-Oct-10 22:28N 44°09' E 028°39'0 0.0
2017-Oct-10 21:58N 44°09' E 028°39'0 0.0
2017-Oct-10 21:28N 44°09' E 028°39'0 0.0
2017-Oct-10 20:58N 44°09' E 028°39'0 0.0
2017-Oct-10 20:28N 44°09' E 028°39'0 0.0
2017-Oct-10 19:58N 44°09' E 028°39'0 0.0
2017-Oct-10 19:28N 44°09' E 028°39'0 0.0
2017-Oct-10 18:58N 44°09' E 028°39'0 0.0
2017-Oct-10 18:28N 44°09' E 028°39'0 0.0
2017-Oct-10 17:58N 44°09' E 028°39'0 0.0
2017-Oct-10 17:28N 44°09' E 028°39'0 0.0
2017-Oct-10 16:58N 44°09' E 028°39'0 0.0
2017-Oct-10 16:28N 44°09' E 028°39'0 0.0
2017-Oct-10 15:58N 44°09' E 028°39'0 0.0
2017-Oct-10 15:28N 44°09' E 028°39'0 0.0
2017-Oct-10 14:58N 44°09' E 028°39'0 0.0
2017-Oct-10 13:58N 44°09' E 028°39'0 0.0
2017-Oct-10 13:28N 44°09' E 028°39'0 0.0
2017-Oct-10 12:58N 44°09' E 028°39'0 0.0
2017-Oct-10 12:25N 44°09' E 028°39'0 0.0
2017-Oct-10 11:58N 44°09' E 028°39'0 0.0
2017-Oct-10 11:28N 44°09' E 028°39'0 0.0
2017-Oct-10 10:58N 44°09' E 028°39'0 0.0
2017-Oct-10 10:28N 44°09' E 028°39'0 0.0
2017-Oct-10 09:58N 44°09' E 028°39'0 0.0
2017-Oct-10 09:25N 44°09' E 028°39'0 0.0
2017-Oct-10 08:55N 44°09' E 028°39'0 0.0
2017-Oct-10 08:25N 44°09' E 028°39'0 0.0
2017-Oct-10 07:58N 44°09' E 028°39'0 0.0
2017-Oct-10 07:28N 44°09' E 028°39'0 0.0
2017-Oct-10 06:58N 44°09' E 028°39'0 0.0
2017-Oct-10 06:25N 44°09' E 028°39'0 0.0
2017-Oct-10 05:58N 44°09' E 028°39'0 0.0
2017-Oct-10 05:28N 44°09' E 028°39'0 0.0
2017-Oct-10 04:58N 44°09' E 028°39'0 0.0
2017-Oct-10 04:28N 44°09' E 028°39'0 0.0
2017-Oct-10 03:58N 44°09' E 028°39'0 0.0
2017-Oct-10 03:28N 44°09' E 028°39'0 0.0
2017-Oct-10 02:58N 44°09' E 028°39'0 0.0
2017-Oct-10 02:31N 44°09' E 028°39'0 0.0
2017-Oct-10 02:00N 44°09' E 028°39'0 0.0
2017-Oct-10 01:27N 44°09' E 028°39'0 0.0
2017-Oct-10 01:00N 44°09' E 028°39'0 0.0
2017-Oct-10 00:30N 44°09' E 028°39'0 0.0
2017-Oct-09 23:57N 44°09' E 028°39'0 0.0
2017-Oct-09 23:30N 44°09' E 028°39'0 0.0
2017-Oct-09 23:00N 44°09' E 028°39'0 0.0
2017-Oct-09 22:30N 44°09' E 028°39'0 0.0
2017-Oct-09 22:00N 44°09' E 028°39'0 0.0
2017-Oct-09 21:30N 44°09' E 028°39'0 0.0
2017-Oct-09 20:57N 44°09' E 028°39'0 0.0
2017-Oct-09 20:30N 44°09' E 028°39'0 0.0
2017-Oct-09 20:00N 44°09' E 028°39'0 0.0
2017-Oct-09 19:30N 44°09' E 028°39'0 0.0
2017-Oct-09 19:00N 44°09' E 028°39'0 0.0
2017-Oct-09 18:30N 44°09' E 028°39'0 0.0
2017-Oct-09 18:00N 44°09' E 028°39'0 0.0
2017-Oct-09 17:30N 44°09' E 028°39'0 0.0
2017-Oct-09 17:00N 44°09' E 028°39'0 0.0
2017-Oct-09 16:30N 44°09' E 028°39'0 0.0
2017-Oct-09 16:00N 44°09' E 028°39'0 0.0
2017-Oct-09 15:30N 44°09' E 028°39'0 0.0
2017-Oct-09 15:00N 44°09' E 028°39'0 0.0
2017-Oct-09 14:30N 44°09' E 028°39'0 0.0
2017-Oct-09 14:00N 44°09' E 028°39'0 0.0
2017-Oct-09 13:30N 44°09' E 028°39'0 0.0
2017-Oct-09 13:00N 44°09' E 028°39'0 0.0
2017-Oct-09 12:30N 44°09' E 028°39'0 0.0
2017-Oct-09 12:00N 44°09' E 028°39'0 0.0
2017-Oct-09 11:30N 44°09' E 028°39'0 0.0
2017-Oct-09 11:00N 44°09' E 028°39'0 0.0
2017-Oct-09 10:30N 44°09' E 028°39'0 0.0
2017-Oct-09 10:00N 44°09' E 028°39'0 0.0
2017-Oct-09 09:30N 44°09' E 028°39'0 0.0
2017-Oct-09 09:00N 44°09' E 028°39'0 0.0
2017-Oct-09 08:30N 44°09' E 028°39'0 0.0
2017-Oct-09 08:00N 44°09' E 028°39'0 0.0
2017-Oct-09 07:30N 44°09' E 028°39'0 0.1
2017-Oct-09 07:00N 44°09' E 028°39'2 3.9
2017-Oct-09 06:30N 44°08' E 028°41'1 2.1
2017-Oct-09 06:00N 44°07' E 028°41'0 0.1
2017-Oct-09 05:30N 44°07' E 028°41'0 0.0
2017-Oct-09 05:00N 44°07' E 028°41'0 0.0
2017-Oct-09 04:30N 44°07' E 028°41'0 0.0
2017-Oct-09 04:00N 44°07' E 028°41'0 0.0
2017-Oct-09 03:30N 44°07' E 028°41'0 0.0
2017-Oct-09 03:00N 44°07' E 028°41'0 0.1
2017-Oct-09 02:30N 44°07' E 028°41'0 0.0
2017-Oct-09 02:00N 44°07' E 028°41'0 0.1
2017-Oct-09 01:30N 44°07' E 028°41'0 0.1
2017-Oct-09 01:00N 44°07' E 028°41'0 0.0
2017-Oct-09 00:30N 44°07' E 028°41'0 0.0
2017-Oct-09 00:00N 44°07' E 028°41'0 0.1
2017-Oct-08 23:30N 44°07' E 028°41'0 0.1
2017-Oct-08 23:00N 44°07' E 028°41'0 0.0
2017-Oct-08 22:30N 44°07' E 028°41'0 0.0
2017-Oct-08 22:00N 44°07' E 028°41'0 0.0
2017-Oct-08 21:30N 44°07' E 028°41'0 0.0
2017-Oct-08 21:00N 44°07' E 028°41'0 0.0
2017-Oct-08 20:30N 44°07' E 028°41'0 0.0
2017-Oct-08 20:00N 44°07' E 028°41'0 0.0
2017-Oct-08 19:30N 44°07' E 028°41'0 0.0
2017-Oct-08 19:00N 44°07' E 028°41'0 0.0
2017-Oct-08 18:29N 44°07' E 028°41'0 0.0
2017-Oct-08 17:59N 44°07' E 028°41'0 0.1
2017-Oct-08 17:29N 44°07' E 028°41'0 0.0
2017-Oct-08 16:59N 44°07' E 028°41'0 0.0
2017-Oct-08 16:29N 44°07' E 028°41'0 0.0
2017-Oct-08 15:59N 44°07' E 028°41'0 0.1
2017-Oct-08 15:29N 44°07' E 028°41'0 0.1
2017-Oct-08 14:59N 44°07' E 028°41'0 0.0
2017-Oct-08 14:29N 44°07' E 028°41'0 0.1
2017-Oct-08 13:59N 44°07' E 028°41'0 0.1
2017-Oct-08 13:29N 44°07' E 028°41'0 0.1
2017-Oct-08 12:59N 44°07' E 028°41'0 0.0
2017-Oct-08 12:29N 44°07' E 028°41'0 0.0
2017-Oct-08 11:59N 44°07' E 028°41'0 0.0
2017-Oct-08 11:29N 44°07' E 028°41'0 0.1
2017-Oct-08 10:59N 44°07' E 028°41'0 0.1
2017-Oct-08 10:29N 44°07' E 028°41'0 0.1
2017-Oct-08 09:59N 44°07' E 028°41'0 0.0
2017-Oct-08 09:29N 44°07' E 028°41'0 0.0
2017-Oct-08 08:59N 44°07' E 028°41'0 0.1
2017-Oct-08 08:29N 44°07' E 028°41'0 0.0
2017-Oct-08 07:59N 44°07' E 028°41'0 0.1
2017-Oct-08 07:29N 44°07' E 028°41'0 0.0
2017-Oct-08 06:59N 44°07' E 028°41'0 0.0
2017-Oct-08 06:29N 44°07' E 028°41'0 0.0
2017-Oct-08 05:59N 44°07' E 028°41'0 0.1
2017-Oct-08 05:29N 44°07' E 028°41'0 0.1
2017-Oct-08 04:59N 44°07' E 028°41'0 0.1
2017-Oct-08 04:29N 44°07' E 028°41'0 0.0
2017-Oct-08 03:59N 44°07' E 028°41'0 0.0
2017-Oct-08 03:29N 44°07' E 028°41'0 0.0
2017-Oct-08 02:59N 44°07' E 028°41'0 0.0
2017-Oct-08 02:29N 44°07' E 028°41'0 0.1
2017-Oct-08 01:59N 44°07' E 028°41'0 0.1
2017-Oct-08 01:26N 44°07' E 028°41'0 0.2
2017-Oct-08 00:59N 44°07' E 028°41'0 0.0
2017-Oct-08 00:29N 44°07' E 028°41'0 0.1
2017-Oct-07 23:59N 44°07' E 028°41'0 0.1
2017-Oct-07 23:29N 44°07' E 028°41'0 0.1
2017-Oct-07 22:59N 44°07' E 028°41'0 0.1
2017-Oct-07 22:29N 44°07' E 028°41'1 1.4
2017-Oct-07 22:00N 44°07' E 028°41'0 0.0
2017-Oct-07 21:30N 44°07' E 028°41'0 0.1
2017-Oct-07 21:00N 44°07' E 028°41'0 0.1
2017-Oct-07 20:30N 44°07' E 028°41'0 0.1
2017-Oct-07 20:00N 44°07' E 028°41'0 0.0
2017-Oct-07 19:30N 44°07' E 028°41'0 0.1
2017-Oct-07 19:00N 44°07' E 028°41'0 0.1
2017-Oct-07 18:30N 44°07' E 028°41'0 0.1
2017-Oct-07 18:00N 44°07' E 028°41'0 0.1
2017-Oct-07 17:30N 44°07' E 028°41'0 0.1
2017-Oct-07 17:00N 44°07' E 028°41'0 0.1
2017-Oct-07 16:30N 44°07' E 028°41'0 0.1
2017-Oct-07 16:00N 44°07' E 028°41'0 0.1
2017-Oct-07 15:30N 44°07' E 028°41'0 0.0
2017-Oct-07 15:00N 44°07' E 028°41'0 0.0
2017-Oct-07 14:30N 44°07' E 028°41'0 0.1
2017-Oct-07 14:00N 44°07' E 028°41'0 0.1
2017-Oct-07 13:30N 44°07' E 028°41'0 0.0
2017-Oct-07 12:57N 44°07' E 028°41'0 0.0
2017-Oct-07 12:30N 44°07' E 028°41'0 0.1
2017-Oct-07 12:00N 44°07' E 028°41'0 0.1
2017-Oct-07 11:30N 44°07' E 028°41'0 0.1
2017-Oct-07 11:00N 44°07' E 028°41'0 0.1
2017-Oct-07 10:30N 44°07' E 028°41'0 0.1
2017-Oct-07 10:00N 44°07' E 028°41'0 0.1
2017-Oct-07 09:30N 44°07' E 028°41'0 0.0
2017-Oct-07 09:00N 44°07' E 028°41'0 0.1
2017-Oct-07 08:30N 44°07' E 028°41'0 0.1
2017-Oct-07 08:00N 44°07' E 028°41'0 0.1
2017-Oct-07 07:30N 44°07' E 028°41'0 0.0
2017-Oct-07 07:00N 44°07' E 028°41'0 0.0
2017-Oct-07 06:30N 44°07' E 028°41'0 0.0
2017-Oct-07 06:00N 44°07' E 028°41'0 0.0
2017-Oct-07 05:30N 44°07' E 028°41'0 0.1
2017-Oct-07 04:57N 44°07' E 028°41'0 0.0
2017-Oct-07 04:30N 44°07' E 028°41'0 0.1
2017-Oct-07 04:00N 44°07' E 028°41'0 0.0
2017-Oct-07 03:30N 44°07' E 028°41'0 0.0
2017-Oct-07 03:00N 44°07' E 028°41'0 0.1
2017-Oct-07 02:30N 44°07' E 028°41'0 0.1
2017-Oct-07 02:00N 44°07' E 028°41'0 0.1
2017-Oct-07 01:30N 44°07' E 028°41'0 0.1
2017-Oct-07 01:00N 44°07' E 028°41'0 0.0
2017-Oct-07 00:30N 44°07' E 028°41'0 0.1
2017-Oct-07 00:00N 44°07' E 028°41'0 0.1
2017-Oct-06 23:30N 44°07' E 028°41'0 0.1
2017-Oct-06 23:00N 44°07' E 028°41'0 0.0
2017-Oct-06 22:30N 44°07' E 028°41'0 0.0
2017-Oct-06 22:00N 44°07' E 028°41'0 0.1
2017-Oct-06 21:29N 44°07' E 028°41'0 0.0
2017-Oct-06 20:59N 44°07' E 028°41'0 0.1
2017-Oct-06 20:29N 44°07' E 028°41'0 0.0
2017-Oct-06 19:59N 44°07' E 028°41'0 0.1
2017-Oct-06 19:29N 44°07' E 028°41'0 0.2
2017-Oct-06 19:00N 44°07' E 028°41'2 3.4
2017-Oct-06 18:30N 44°06' E 028°43'2 3.1
2017-Oct-06 18:00N 44°07' E 028°44'0 0.1
2017-Oct-06 17:30N 44°07' E 028°44'0 0.0
2017-Oct-06 17:00N 44°07' E 028°44'0 0.1
2017-Oct-06 16:30N 44°07' E 028°44'0 0.2
2017-Oct-06 16:00N 44°07' E 028°44'0 0.1
2017-Oct-06 15:30N 44°07' E 028°44'0 0.0
2017-Oct-06 15:00N 44°07' E 028°44'0 0.0
2017-Oct-06 14:27N 44°07' E 028°44'0 0.0
2017-Oct-06 14:00N 44°07' E 028°44'0 0.0
2017-Oct-06 13:30N 44°07' E 028°44'0 0.0
2017-Oct-06 13:00N 44°07' E 028°44'0 0.0
2017-Oct-06 12:30N 44°07' E 028°44'0 0.0
2017-Oct-06 12:00N 44°07' E 028°44'0 0.0
2017-Oct-06 11:30N 44°07' E 028°44'0 0.0
2017-Oct-06 11:00N 44°07' E 028°44'0 0.0
2017-Oct-06 10:30N 44°07' E 028°44'0 0.0
2017-Oct-06 10:00N 44°07' E 028°44'0 0.6
2017-Oct-06 09:30N 44°07' E 028°45'4 8.9
2017-Oct-06 09:00N 44°03' E 028°48'4 8.6
2017-Oct-06 08:30N 43°59' E 028°50'5 9.1
2017-Oct-06 08:00N 43°54' E 028°50'5 9.1
2017-Oct-06 07:30N 43°50' E 028°49'5 9.0
2017-Oct-06 07:00N 43°45' E 028°50'4 8.9
2017-Oct-06 06:30N 43°41' E 028°51'4 8.9
2017-Oct-06 06:00N 43°37' E 028°52'4 8.7
2017-Oct-06 05:30N 43°32' E 028°53'4 8.7
2017-Oct-06 05:00N 43°28' E 028°54'4 8.6
2017-Oct-06 04:30N 43°24' E 028°54'4 8.8
2017-Oct-06 04:00N 43°19' E 028°54'4 8.8
2017-Oct-06 03:30N 43°15' E 028°55'4 8.6
2017-Oct-06 03:00N 43°11' E 028°55'4 8.3
2017-Oct-06 02:29N 43°06' E 028°55'  
Track history (hours):
 
Tides and Currents Weather Stations Pressure Air Temp Water Temp Dewpoint Dewpoint Depression Visibility Wind Speed Wind Dir Waves Ship Positions

Yuzer 1

Last reported at 2017-Oct-15 21:43 UTC. Time now 2017-Oct-17 13:47 UTC.
Position N 40°59' E 028°60'.

Length 88 m; draft 3.4 m.

Type: Cargo ship. MMSI: 577363000.

Date/timePositionNaut miles runAvg speedWind from/ knotsBaromVisibWave heightAir tempDewpointWater temp
2017-Oct-15 21:43N 40°59' E 028°60'4 7.1
2017-Oct-15 21:09N 40°56' E 029°03'1 8.7
2017-Oct-15 21:00N 40°55' E 029°04'4 8.4
2017-Oct-15 20:30N 40°53' E 029°09'2 3.3
2017-Oct-15 19:59N 40°52' E 029°11'0 0.1
2017-Oct-15 19:30N 40°52' E 029°11'0 0.0
2017-Oct-15 19:00N 40°52' E 029°11'0 0.0
2017-Oct-15 18:30N 40°52' E 029°11'0 0.0
2017-Oct-15 18:00N 40°52' E 029°11'0 0.0
2017-Oct-15 17:30N 40°52' E 029°11'0 0.0
2017-Oct-15 17:00N 40°52' E 029°11'0 0.0
2017-Oct-15 16:30N 40°52' E 029°11'0 0.0
2017-Oct-15 16:00N 40°52' E 029°11'0 0.0
2017-Oct-15 15:30N 40°52' E 029°11'0 0.0
2017-Oct-15 15:00N 40°52' E 029°11'0 0.0
2017-Oct-15 14:00N 40°52' E 029°11'0 0.0
2017-Oct-15 13:30N 40°52' E 029°11'0 0.0
2017-Oct-15 13:00N 40°52' E 029°11'0 0.0
2017-Oct-15 12:30N 40°52' E 029°11'0 0.0
2017-Oct-15 12:00N 40°52' E 029°11'0 0.0
2017-Oct-15 11:30N 40°52' E 029°11'0 0.0
2017-Oct-15 11:00N 40°52' E 029°11'1 1.6
2017-Oct-15 10:30N 40°51' E 029°11'4 8.7
2017-Oct-15 10:00N 40°48' E 029°14'4 8.9
2017-Oct-15 09:30N 40°45' E 029°19'5 8.8
2017-Oct-15 08:54N 40°45' E 029°26'  
2017-Oct-11 00:00N 44°03' E 028°43'4 7.5
2017-Oct-10 23:30N 44°07' E 028°41'3 5.4
2017-Oct-10 23:00N 44°09' E 028°40'1 1.4
2017-Oct-10 22:28N 44°09' E 028°39'0 0.0
2017-Oct-10 21:58N 44°09' E 028°39'0 0.0
2017-Oct-10 21:28N 44°09' E 028°39'0 0.0
2017-Oct-10 20:58N 44°09' E 028°39'0 0.0
2017-Oct-10 20:28N 44°09' E 028°39'0 0.0
2017-Oct-10 19:58N 44°09' E 028°39'0 0.0
2017-Oct-10 19:28N 44°09' E 028°39'0 0.0
2017-Oct-10 18:58N 44°09' E 028°39'0 0.0
2017-Oct-10 18:28N 44°09' E 028°39'0 0.0
2017-Oct-10 17:58N 44°09' E 028°39'0 0.0
2017-Oct-10 17:28N 44°09' E 028°39'0 0.0
2017-Oct-10 16:58N 44°09' E 028°39'0 0.0
2017-Oct-10 16:28N 44°09' E 028°39'0 0.0
2017-Oct-10 15:58N 44°09' E 028°39'0 0.0
2017-Oct-10 15:28N 44°09' E 028°39'0 0.0
2017-Oct-10 14:58N 44°09' E 028°39'0 0.0
2017-Oct-10 13:58N 44°09' E 028°39'0 0.0
2017-Oct-10 13:28N 44°09' E 028°39'0 0.0
2017-Oct-10 12:58N 44°09' E 028°39'0 0.0
2017-Oct-10 12:25N 44°09' E 028°39'0 0.0
2017-Oct-10 11:58N 44°09' E 028°39'0 0.0
2017-Oct-10 11:28N 44°09' E 028°39'0 0.0
2017-Oct-10 10:58N 44°09' E 028°39'0 0.0
2017-Oct-10 10:28N 44°09' E 028°39'0 0.0
2017-Oct-10 09:58N 44°09' E 028°39'0 0.0
2017-Oct-10 09:25N 44°09' E 028°39'0 0.0
2017-Oct-10 08:55N 44°09' E 028°39'0 0.0
2017-Oct-10 08:25N 44°09' E 028°39'0 0.0
2017-Oct-10 07:58N 44°09' E 028°39'0 0.0
2017-Oct-10 07:28N 44°09' E 028°39'0 0.0
2017-Oct-10 06:58N 44°09' E 028°39'0 0.0
2017-Oct-10 06:25N 44°09' E 028°39'0 0.0
2017-Oct-10 05:58N 44°09' E 028°39'0 0.0
2017-Oct-10 05:28N 44°09' E 028°39'0 0.0
2017-Oct-10 04:58N 44°09' E 028°39'0 0.0
2017-Oct-10 04:28N 44°09' E 028°39'0 0.0
2017-Oct-10 03:58N 44°09' E 028°39'0 0.0
2017-Oct-10 03:28N 44°09' E 028°39'0 0.0
2017-Oct-10 02:58N 44°09' E 028°39'0 0.0
2017-Oct-10 02:31N 44°09' E 028°39'0 0.0
2017-Oct-10 02:00N 44°09' E 028°39'0 0.0
2017-Oct-10 01:27N 44°09' E 028°39'0 0.0
2017-Oct-10 01:00N 44°09' E 028°39'0 0.0
2017-Oct-10 00:30N 44°09' E 028°39'0 0.0
2017-Oct-09 23:57N 44°09' E 028°39'0 0.0
2017-Oct-09 23:30N 44°09' E 028°39'0 0.0
2017-Oct-09 23:00N 44°09' E 028°39'0 0.0
2017-Oct-09 22:30N 44°09' E 028°39'0 0.0
2017-Oct-09 22:00N 44°09' E 028°39'0 0.0
2017-Oct-09 21:30N 44°09' E 028°39'0 0.0
2017-Oct-09 20:57N 44°09' E 028°39'0 0.0
2017-Oct-09 20:30N 44°09' E 028°39'0 0.0
2017-Oct-09 20:00N 44°09' E 028°39'0 0.0
2017-Oct-09 19:30N 44°09' E 028°39'0 0.0
2017-Oct-09 19:00N 44°09' E 028°39'0 0.0
2017-Oct-09 18:30N 44°09' E 028°39'0 0.0
2017-Oct-09 18:00N 44°09' E 028°39'0 0.0
2017-Oct-09 17:30N 44°09' E 028°39'0 0.0
2017-Oct-09 17:00N 44°09' E 028°39'0 0.0
2017-Oct-09 16:30N 44°09' E 028°39'0 0.0
2017-Oct-09 16:00N 44°09' E 028°39'0 0.0
2017-Oct-09 15:30N 44°09' E 028°39'0 0.0
2017-Oct-09 15:00N 44°09' E 028°39'0 0.0
2017-Oct-09 14:30N 44°09' E 028°39'0 0.0
2017-Oct-09 14:00N 44°09' E 028°39'0 0.0
2017-Oct-09 13:30N 44°09' E 028°39'0 0.0
2017-Oct-09 13:00N 44°09' E 028°39'0 0.0
2017-Oct-09 12:30N 44°09' E 028°39'0 0.0
2017-Oct-09 12:00N 44°09' E 028°39'0 0.0
2017-Oct-09 11:30N 44°09' E 028°39'0 0.0
2017-Oct-09 11:00N 44°09' E 028°39'0 0.0
2017-Oct-09 10:30N 44°09' E 028°39'0 0.0
2017-Oct-09 10:00N 44°09' E 028°39'0 0.0
2017-Oct-09 09:30N 44°09' E 028°39'0 0.0
2017-Oct-09 09:00N 44°09' E 028°39'0 0.0
2017-Oct-09 08:30N 44°09' E 028°39'0 0.0
2017-Oct-09 08:00N 44°09' E 028°39'0 0.0
2017-Oct-09 07:30N 44°09' E 028°39'0 0.1
2017-Oct-09 07:00N 44°09' E 028°39'2 3.9
2017-Oct-09 06:30N 44°08' E 028°41'1 2.1
2017-Oct-09 06:00N 44°07' E 028°41'0 0.1
2017-Oct-09 05:30N 44°07' E 028°41'0 0.0
2017-Oct-09 05:00N 44°07' E 028°41'0 0.0
2017-Oct-09 04:30N 44°07' E 028°41'0 0.0
2017-Oct-09 04:00N 44°07' E 028°41'0 0.0
2017-Oct-09 03:30N 44°07' E 028°41'0 0.0
2017-Oct-09 03:00N 44°07' E 028°41'0 0.1
2017-Oct-09 02:30N 44°07' E 028°41'0 0.0
2017-Oct-09 02:00N 44°07' E 028°41'0 0.1
2017-Oct-09 01:30N 44°07' E 028°41'0 0.1
2017-Oct-09 01:00N 44°07' E 028°41'0 0.0
2017-Oct-09 00:30N 44°07' E 028°41'0 0.0
2017-Oct-09 00:00N 44°07' E 028°41'0 0.1
2017-Oct-08 23:30N 44°07' E 028°41'0 0.1
2017-Oct-08 23:00N 44°07' E 028°41'0 0.0
2017-Oct-08 22:30N 44°07' E 028°41'0 0.0
2017-Oct-08 22:00N 44°07' E 028°41'0 0.0
2017-Oct-08 21:30N 44°07' E 028°41'0 0.0
2017-Oct-08 21:00N 44°07' E 028°41'0 0.0
2017-Oct-08 20:30N 44°07' E 028°41'0 0.0
2017-Oct-08 20:00N 44°07' E 028°41'0 0.0
2017-Oct-08 19:30N 44°07' E 028°41'0 0.0
2017-Oct-08 19:00N 44°07' E 028°41'0 0.0
2017-Oct-08 18:29N 44°07' E 028°41'0 0.0
2017-Oct-08 17:59N 44°07' E 028°41'0 0.1
2017-Oct-08 17:29N 44°07' E 028°41'0 0.0
2017-Oct-08 16:59N 44°07' E 028°41'0 0.0
2017-Oct-08 16:29N 44°07' E 028°41'0 0.0
2017-Oct-08 15:59N 44°07' E 028°41'0 0.1
2017-Oct-08 15:29N 44°07' E 028°41'0 0.1
2017-Oct-08 14:59N 44°07' E 028°41'0 0.0
2017-Oct-08 14:29N 44°07' E 028°41'0 0.1
2017-Oct-08 13:59N 44°07' E 028°41'0 0.1
2017-Oct-08 13:29N 44°07' E 028°41'0 0.1
2017-Oct-08 12:59N 44°07' E 028°41'0 0.0
2017-Oct-08 12:29N 44°07' E 028°41'0 0.0
2017-Oct-08 11:59N 44°07' E 028°41'0 0.0
2017-Oct-08 11:29N 44°07' E 028°41'0 0.1
2017-Oct-08 10:59N 44°07' E 028°41'0 0.1
2017-Oct-08 10:29N 44°07' E 028°41'0 0.1
2017-Oct-08 09:59N 44°07' E 028°41'0 0.0
2017-Oct-08 09:29N 44°07' E 028°41'0 0.0
2017-Oct-08 08:59N 44°07' E 028°41'0 0.1
2017-Oct-08 08:29N 44°07' E 028°41'0 0.0
2017-Oct-08 07:59N 44°07' E 028°41'0 0.1
2017-Oct-08 07:29N 44°07' E 028°41'0 0.0
2017-Oct-08 06:59N 44°07' E 028°41'0 0.0
2017-Oct-08 06:29N 44°07' E 028°41'0 0.0
2017-Oct-08 05:59N 44°07' E 028°41'0 0.1
2017-Oct-08 05:29N 44°07' E 028°41'0 0.1
2017-Oct-08 04:59N 44°07' E 028°41'0 0.1
2017-Oct-08 04:29N 44°07' E 028°41'0 0.0
2017-Oct-08 03:59N 44°07' E 028°41'0 0.0
2017-Oct-08 03:29N 44°07' E 028°41'0 0.0
2017-Oct-08 02:59N 44°07' E 028°41'0 0.0
2017-Oct-08 02:29N 44°07' E 028°41'0 0.1
2017-Oct-08 01:59N 44°07' E 028°41'0 0.1
2017-Oct-08 01:26N 44°07' E 028°41'0 0.2
2017-Oct-08 00:59N 44°07' E 028°41'0 0.0
2017-Oct-08 00:29N 44°07' E 028°41'0 0.1
2017-Oct-07 23:59N 44°07' E 028°41'0 0.1
2017-Oct-07 23:29N 44°07' E 028°41'0 0.1
2017-Oct-07 22:59N 44°07' E 028°41'0 0.1
2017-Oct-07 22:29N 44°07' E 028°41'1 1.4
2017-Oct-07 22:00N 44°07' E 028°41'0 0.0
2017-Oct-07 21:30N 44°07' E 028°41'0 0.1
2017-Oct-07 21:00N 44°07' E 028°41'0 0.1
2017-Oct-07 20:30N 44°07' E 028°41'0 0.1
2017-Oct-07 20:00N 44°07' E 028°41'0 0.0
2017-Oct-07 19:30N 44°07' E 028°41'0 0.1
2017-Oct-07 19:00N 44°07' E 028°41'0 0.1
2017-Oct-07 18:30N 44°07' E 028°41'0 0.1
2017-Oct-07 18:00N 44°07' E 028°41'0 0.1
2017-Oct-07 17:30N 44°07' E 028°41'0 0.1
2017-Oct-07 17:00N 44°07' E 028°41'0 0.1
2017-Oct-07 16:30N 44°07' E 028°41'0 0.1
2017-Oct-07 16:00N 44°07' E 028°41'0 0.1
2017-Oct-07 15:30N 44°07' E 028°41'0 0.0
2017-Oct-07 15:00N 44°07' E 028°41'0 0.0
2017-Oct-07 14:30N 44°07' E 028°41'0 0.1
2017-Oct-07 14:00N 44°07' E 028°41'0 0.1
2017-Oct-07 13:30N 44°07' E 028°41'0 0.0
2017-Oct-07 12:57N 44°07' E 028°41'0 0.0
2017-Oct-07 12:30N 44°07' E 028°41'0 0.1
2017-Oct-07 12:00N 44°07' E 028°41'0 0.1
2017-Oct-07 11:30N 44°07' E 028°41'0 0.1
2017-Oct-07 11:00N 44°07' E 028°41'0 0.1
2017-Oct-07 10:30N 44°07' E 028°41'0 0.1
2017-Oct-07 10:00N 44°07' E 028°41'0 0.1
2017-Oct-07 09:30N 44°07' E 028°41'0 0.0
2017-Oct-07 09:00N 44°07' E 028°41'0 0.1
2017-Oct-07 08:30N 44°07' E 028°41'0 0.1
2017-Oct-07 08:00N 44°07' E 028°41'0 0.1
2017-Oct-07 07:30N 44°07' E 028°41'0 0.0
2017-Oct-07 07:00N 44°07' E 028°41'0 0.0
2017-Oct-07 06:30N 44°07' E 028°41'0 0.0
2017-Oct-07 06:00N 44°07' E 028°41'0 0.0
2017-Oct-07 05:30N 44°07' E 028°41'0 0.1
2017-Oct-07 04:57N 44°07' E 028°41'0 0.0
2017-Oct-07 04:30N 44°07' E 028°41'0 0.1
2017-Oct-07 04:00N 44°07' E 028°41'0 0.0
2017-Oct-07 03:30N 44°07' E 028°41'0 0.0
2017-Oct-07 03:00N 44°07' E 028°41'0 0.1
2017-Oct-07 02:30N 44°07' E 028°41'0 0.1
2017-Oct-07 02:00N 44°07' E 028°41'0 0.1
2017-Oct-07 01:30N 44°07' E 028°41'0 0.1
2017-Oct-07 01:00N 44°07' E 028°41'0 0.0
2017-Oct-07 00:30N 44°07' E 028°41'0 0.1
2017-Oct-07 00:00N 44°07' E 028°41'0 0.1
2017-Oct-06 23:30N 44°07' E 028°41'0 0.1
2017-Oct-06 23:00N 44°07' E 028°41'0 0.0
2017-Oct-06 22:30N 44°07' E 028°41'0 0.0
2017-Oct-06 22:00N 44°07' E 028°41'0 0.1
2017-Oct-06 21:29N 44°07' E 028°41'0 0.0
2017-Oct-06 20:59N 44°07' E 028°41'0 0.1
2017-Oct-06 20:29N 44°07' E 028°41'0 0.0
2017-Oct-06 19:59N 44°07' E 028°41'0 0.1
2017-Oct-06 19:29N 44°07' E 028°41'0 0.2
2017-Oct-06 19:00N 44°07' E 028°41'2 3.4
2017-Oct-06 18:30N 44°06' E 028°43'2 3.1
2017-Oct-06 18:00N 44°07' E 028°44'0 0.1
2017-Oct-06 17:30N 44°07' E 028°44'0 0.0
2017-Oct-06 17:00N 44°07' E 028°44'0 0.1
2017-Oct-06 16:30N 44°07' E 028°44'0 0.2
2017-Oct-06 16:00N 44°07' E 028°44'0 0.1
2017-Oct-06 15:30N 44°07' E 028°44'0 0.0
2017-Oct-06 15:00N 44°07' E 028°44'0 0.0
2017-Oct-06 14:27N 44°07' E 028°44'0 0.0
2017-Oct-06 14:00N 44°07' E 028°44'0 0.0
2017-Oct-06 13:30N 44°07' E 028°44'0 0.0
2017-Oct-06 13:00N 44°07' E 028°44'0 0.0
2017-Oct-06 12:30N 44°07' E 028°44'0 0.0
2017-Oct-06 12:00N 44°07' E 028°44'0 0.0
2017-Oct-06 11:30N 44°07' E 028°44'0 0.0
2017-Oct-06 11:00N 44°07' E 028°44'0 0.0
2017-Oct-06 10:30N 44°07' E 028°44'0 0.0
2017-Oct-06 10:00N 44°07' E 028°44'0 0.6
2017-Oct-06 09:30N 44°07' E 028°45'4 8.9
2017-Oct-06 09:00N 44°03' E 028°48'4 8.6
2017-Oct-06 08:30N 43°59' E 028°50'5 9.1
2017-Oct-06 08:00N 43°54' E 028°50'5 9.1
2017-Oct-06 07:30N 43°50' E 028°49'5 9.0
2017-Oct-06 07:00N 43°45' E 028°50'4 8.9
2017-Oct-06 06:30N 43°41' E 028°51'4 8.9
2017-Oct-06 06:00N 43°37' E 028°52'4 8.7
2017-Oct-06 05:30N 43°32' E 028°53'4 8.7
2017-Oct-06 05:00N 43°28' E 028°54'4 8.6
2017-Oct-06 04:30N 43°24' E 028°54'4 8.8
2017-Oct-06 04:00N 43°19' E 028°54'4 8.8
2017-Oct-06 03:30N 43°15' E 028°55'4 8.6
2017-Oct-06 03:00N 43°11' E 028°55'4 8.3
2017-Oct-06 02:29N 43°06' E 028°55'  

Dump ship's entire track history